createdAt,value
2018-05-10T00:01:48.643Z,7.90
2018-05-10T00:04:17.165Z,8.13
2018-05-10T00:06:45.505Z,10.83
2018-05-10T00:09:14.776Z,6.63
2018-05-10T00:11:43.317Z,8.10
2018-05-10T00:14:11.858Z,6.67
2018-05-10T00:16:40.372Z,6.90
2018-05-10T00:19:09.667Z,7.67
2018-05-10T00:21:38.944Z,6.80
2018-05-10T00:24:07.692Z,10.93
2018-05-10T00:26:36.201Z,7.60
2018-05-10T00:29:04.816Z,7.83
2018-05-10T00:31:34.119Z,6.30
2018-05-10T00:34:11.343Z,6.50
2018-05-10T00:36:39.887Z,8.00
2018-05-10T00:39:09.196Z,7.10
2018-05-10T00:41:37.737Z,8.07
2018-05-10T00:44:06.256Z,8.80
2018-05-10T00:46:35.563Z,9.13
2018-05-10T00:49:04.864Z,7.47
2018-05-10T00:51:33.405Z,10.23
2018-05-10T00:54:01.927Z,9.10
2018-05-10T00:56:30.474Z,7.87
2018-05-10T00:58:59.013Z,7.30
2018-05-10T01:01:27.578Z,9.40
2018-05-10T01:03:56.116Z,8.67
2018-05-10T01:06:24.629Z,8.27
2018-05-10T01:08:53.164Z,9.20
2018-05-10T01:11:21.716Z,7.33
2018-05-10T01:13:50.368Z,8.30
2018-05-10T01:16:18.908Z,7.60
2018-05-10T01:18:47.415Z,8.60
2018-05-10T01:21:15.958Z,9.40
2018-05-10T01:23:44.558Z,7.40
2018-05-10T01:26:13.110Z,7.47
2018-05-10T01:28:41.648Z,8.27
2018-05-10T01:31:10.173Z,8.07
2018-05-10T01:33:38.712Z,7.17
2018-05-10T01:36:19.757Z,8.07
2018-05-10T01:38:48.297Z,8.07
2018-05-10T01:41:16.856Z,8.57
2018-05-10T01:43:45.398Z,8.57
2018-05-10T01:46:13.737Z,9.80
2018-05-10T01:48:42.360Z,8.30
2018-05-10T01:51:10.881Z,7.27
2018-05-10T01:53:39.439Z,6.90
2018-05-10T01:56:07.980Z,7.80
2018-05-10T01:58:37.265Z,8.73
2018-05-10T02:01:06.576Z,7.10
2018-05-10T02:03:35.849Z,7.43
2018-05-10T02:06:04.174Z,8.17
2018-05-10T02:08:32.715Z,7.43
2018-05-10T02:11:01.241Z,10.20
2018-05-10T02:13:29.800Z,7.07
2018-05-10T02:15:58.329Z,7.30
2018-05-10T02:18:26.863Z,8.63
2018-05-10T02:20:56.163Z,7.67
2018-05-10T02:23:25.468Z,8.53
2018-05-10T02:25:54.775Z,11.23
2018-05-10T02:28:23.280Z,8.80
2018-05-10T02:30:51.812Z,9.13
2018-05-10T02:33:20.325Z,8.67
2018-05-10T02:35:48.884Z,9.27
2018-05-10T02:38:17.397Z,8.70
2018-05-10T02:40:45.929Z,8.37
2018-05-10T02:43:14.527Z,8.83
2018-05-10T02:45:43.051Z,7.77
2018-05-10T02:48:11.606Z,7.87
2018-05-10T02:50:40.344Z,7.50
2018-05-10T02:53:08.876Z,8.83
2018-05-10T02:55:38.159Z,6.73
2018-05-10T02:58:06.817Z,8.53
2018-05-10T03:00:35.353Z,8.90
2018-05-10T03:03:03.873Z,8.90
2018-05-10T03:05:32.405Z,9.17
2018-05-10T03:08:01.680Z,10.87
2018-05-10T03:10:30.236Z,9.53
2018-05-10T03:12:58.753Z,11.20
2018-05-10T03:15:28.075Z,10.27
2018-05-10T03:17:57.367Z,9.63
2018-05-10T03:20:26.656Z,8.57
2018-05-10T03:22:55.196Z,9.20
2018-05-10T03:25:23.569Z,11.70
2018-05-10T03:27:52.122Z,11.47
2018-05-10T03:30:20.657Z,11.30
2018-05-10T03:32:49.399Z,9.57
2018-05-10T03:35:17.952Z,10.40
2018-05-10T03:37:46.455Z,8.80
2018-05-10T03:40:14.997Z,8.57
2018-05-10T03:42:43.504Z,7.80
2018-05-10T03:45:12.819Z,7.83
2018-05-10T03:47:42.092Z,7.80
2018-05-10T03:50:10.626Z,8.07
2018-05-10T03:52:39.133Z,8.00
2018-05-10T03:55:07.668Z,7.57
2018-05-10T03:57:36.173Z,8.30
2018-05-10T04:00:04.087Z,9.77
2018-05-10T04:05:52.039Z,7.50
2018-05-10T04:08:31.731Z,7.80
2018-05-10T04:14:09.684Z,9.20
2018-05-10T04:16:38.251Z,10.20
2018-05-10T04:19:06.787Z,11.10
2018-05-10T04:21:35.353Z,9.83
2018-05-10T04:24:03.917Z,10.93
2018-05-10T04:26:32.450Z,11.23
2018-05-10T04:29:01.014Z,10.87
2018-05-10T04:31:29.549Z,9.97
2018-05-10T04:33:58.101Z,10.23
2018-05-10T04:36:26.675Z,12.07
2018-05-10T04:38:55.213Z,9.40
2018-05-10T04:41:23.780Z,10.27
2018-05-10T04:43:53.075Z,9.97
2018-05-10T04:46:22.410Z,8.60
2018-05-10T04:48:50.948Z,9.37
2018-05-10T04:51:19.510Z,8.80
2018-05-10T04:53:48.050Z,8.53
2018-05-10T04:56:16.617Z,8.47
2018-05-10T04:58:45.151Z,10.50
2018-05-10T05:01:13.705Z,9.13
2018-05-10T05:03:43.031Z,10.87
2018-05-10T05:06:11.595Z,10.97
2018-05-10T05:08:40.921Z,10.43
2018-05-10T05:11:09.495Z,10.53
2018-05-10T05:13:38.097Z,12.43
2018-05-10T05:16:06.373Z,10.60
2018-05-10T05:18:34.914Z,8.00
2018-05-10T05:21:03.498Z,8.63
2018-05-10T05:23:32.814Z,8.67
2018-05-10T05:26:02.149Z,9.23
2018-05-10T05:28:30.690Z,8.80
2018-05-10T05:30:59.257Z,9.03
2018-05-10T05:33:27.790Z,10.10
2018-05-10T05:35:56.366Z,8.40
2018-05-10T05:38:25.663Z,8.90
2018-05-10T05:40:55.038Z,9.23
2018-05-10T05:43:23.647Z,9.20
2018-05-10T05:45:52.329Z,8.67
2018-05-10T05:48:21.662Z,7.93
2018-05-10T05:50:50.246Z,7.87
2018-05-10T05:53:18.825Z,8.43
2018-05-10T05:55:47.406Z,7.73
2018-05-10T05:58:16.783Z,7.40
2018-05-10T06:01:05.104Z,8.00
2018-05-10T06:03:33.671Z,7.67
2018-05-10T06:06:02.229Z,8.00
2018-05-10T06:08:31.529Z,7.77
2018-05-10T06:11:05.502Z,7.30
2018-05-10T06:13:34.046Z,8.17
2018-05-10T06:16:02.724Z,7.50
2018-05-10T06:18:31.349Z,10.37
2018-05-10T06:21:00.022Z,6.90
2018-05-10T06:23:28.720Z,7.33
2018-05-10T06:25:57.257Z,8.03
2018-05-10T06:28:25.862Z,6.50
2018-05-10T06:30:54.402Z,6.40
2018-05-10T06:33:23.739Z,9.73
2018-05-10T06:35:53.090Z,5.80
2018-05-10T06:38:21.652Z,6.07
2018-05-10T06:40:50.198Z,7.30
2018-05-10T06:43:18.755Z,6.37
2018-05-10T06:45:47.334Z,7.57
2018-05-10T06:48:20.184Z,5.37
2018-05-10T06:50:49.510Z,6.83
2018-05-10T06:53:18.058Z,7.33
2018-05-10T06:55:47.427Z,7.80
2018-05-10T06:58:15.972Z,10.20
2018-05-10T07:00:44.530Z,5.53
2018-05-10T07:03:13.068Z,7.30
2018-05-10T07:05:41.838Z,6.03
2018-05-10T07:08:10.400Z,7.00
2018-05-10T07:10:39.703Z,7.30
2018-05-10T07:13:09.034Z,6.77
2018-05-10T07:15:37.570Z,6.27
2018-05-10T07:18:06.136Z,6.47
2018-05-10T07:20:34.658Z,6.17
2018-05-10T07:23:03.530Z,8.13
2018-05-10T07:25:32.107Z,6.57
2018-05-10T07:28:00.755Z,5.97
2018-05-10T07:30:29.321Z,5.87
2018-05-10T07:32:58.622Z,5.43
2018-05-10T07:35:27.393Z,6.13
2018-05-10T07:37:55.958Z,7.43
2018-05-10T07:40:24.558Z,8.33
2018-05-10T07:42:53.097Z,10.70
2018-05-10T07:45:21.715Z,8.20
2018-05-10T07:47:50.247Z,10.17
2018-05-10T07:50:18.826Z,7.60
2018-05-10T07:52:51.768Z,7.47
2018-05-10T07:55:20.460Z,9.07
2018-05-10T07:57:49.114Z,8.53
2018-05-10T08:00:17.673Z,9.87
2018-05-10T08:02:46.274Z,7.90
2018-05-10T08:05:14.805Z,8.40
2018-05-10T08:07:43.379Z,8.90
2018-05-10T08:10:11.995Z,12.87
2018-05-10T08:12:40.687Z,13.73
2018-05-10T08:15:09.249Z,16.77
2018-05-10T08:17:37.795Z,17.37
2018-05-10T08:20:06.466Z,15.27
2018-05-10T08:22:35.022Z,15.87
2018-05-10T08:25:03.646Z,14.37
2018-05-10T08:27:41.092Z,18.47
2018-05-10T08:30:09.687Z,15.80
2018-05-10T08:32:38.268Z,17.13
2018-05-10T08:35:06.865Z,17.73
2018-05-10T08:37:35.461Z,16.13
2018-05-10T08:40:03.766Z,14.73
2018-05-10T08:42:32.381Z,17.17
2018-05-10T08:45:01.863Z,14.80
2018-05-10T08:47:30.531Z,21.13
2018-05-10T08:49:58.768Z,19.30
2018-05-10T08:52:27.388Z,20.97
2018-05-10T08:54:56.116Z,20.23
2018-05-10T08:57:24.712Z,20.67
2018-05-10T08:59:53.314Z,24.60
2018-05-10T09:02:21.903Z,28.67
2018-05-10T09:04:50.570Z,25.60
2018-05-10T09:07:19.231Z,26.40
2018-05-10T09:09:47.942Z,27.83
2018-05-10T09:12:16.511Z,30.23
2018-05-10T09:14:45.143Z,28.83
2018-05-10T09:17:13.759Z,28.63
2018-05-10T09:19:42.299Z,29.63
2018-05-10T09:22:22.265Z,28.50
2018-05-10T09:24:50.811Z,30.10
2018-05-10T09:27:25.048Z,32.33
2018-05-10T09:29:53.586Z,32.33
2018-05-10T09:32:22.168Z,32.93
2018-05-10T09:34:50.717Z,33.93
2018-05-10T09:37:19.306Z,31.47
2018-05-10T09:39:47.846Z,29.00
2018-05-10T09:42:17.178Z,26.10
2018-05-10T09:44:45.754Z,26.50
2018-05-10T09:47:14.522Z,26.87
2018-05-10T09:49:43.099Z,27.87
2018-05-10T09:52:11.677Z,24.50
2018-05-10T09:54:40.273Z,21.73
2018-05-10T09:57:08.881Z,25.47
2018-05-10T09:59:38.420Z,23.20
2018-05-10T10:02:06.998Z,23.40
2018-05-10T10:04:38.852Z,21.23
2018-05-10T10:07:07.436Z,20.83
2018-05-10T10:09:36.015Z,19.70
2018-05-10T10:12:04.561Z,20.20
2018-05-10T10:14:33.133Z,20.70
2018-05-10T10:17:01.708Z,21.70
2018-05-10T10:19:30.256Z,16.00
2018-05-10T10:21:59.586Z,15.00
2018-05-10T10:24:28.151Z,17.17
2018-05-10T10:26:56.683Z,16.53
2018-05-10T10:29:25.458Z,17.80
2018-05-10T10:31:54.144Z,17.30
2018-05-10T10:34:22.775Z,16.47
2018-05-10T10:36:52.103Z,16.53
2018-05-10T10:39:20.683Z,16.40
2018-05-10T10:41:50.006Z,17.10
2018-05-10T10:44:18.591Z,18.63
2018-05-10T10:46:52.718Z,16.90
2018-05-10T10:49:21.293Z,20.03
2018-05-10T10:54:52.379Z,14.50
2018-05-10T10:57:20.954Z,17.20
2018-05-10T10:59:49.503Z,16.00
2018-05-10T11:02:18.865Z,15.83
2018-05-10T11:04:47.407Z,15.10
2018-05-10T11:07:21.102Z,14.33
2018-05-10T11:09:50.426Z,13.77
2018-05-10T11:12:19.004Z,18.23
2018-05-10T11:14:47.637Z,11.77
2018-05-10T11:17:16.199Z,15.23
2018-05-10T11:19:44.775Z,14.30
2018-05-10T11:22:21.394Z,13.50
2018-05-10T11:24:49.986Z,12.07
2018-05-10T11:27:19.685Z,12.97
2018-05-10T11:29:49.148Z,12.17
2018-05-10T11:32:17.759Z,11.23
2018-05-10T11:34:46.345Z,15.03
2018-05-10T11:37:14.876Z,13.17
2018-05-10T11:39:43.464Z,14.80
2018-05-10T11:42:12.875Z,16.33
2018-05-10T11:44:42.265Z,16.73
2018-05-10T11:47:11.627Z,14.53
2018-05-10T11:49:40.375Z,17.13
2018-05-10T11:52:08.970Z,14.37
2018-05-10T11:54:38.283Z,14.00
2018-05-10T11:57:06.867Z,17.13
2018-05-10T11:59:35.735Z,17.33
2018-05-10T12:02:08.174Z,17.53
2018-05-10T12:04:38.803Z,16.53
2018-05-10T12:07:07.972Z,15.40
2018-05-10T12:09:36.539Z,14.63
2018-05-10T12:12:05.872Z,13.33
2018-05-10T12:14:34.447Z,9.73
2018-05-10T12:17:03.011Z,9.27
2018-05-10T12:19:32.354Z,8.80
2018-05-10T12:22:00.953Z,8.93
2018-05-10T12:24:32.562Z,7.20
2018-05-10T12:27:01.919Z,7.77
2018-05-10T12:29:30.449Z,5.20
2018-05-10T12:31:59.773Z,7.40
2018-05-10T12:34:28.458Z,7.47
2018-05-10T12:36:57.043Z,6.10
2018-05-10T12:39:26.419Z,5.87
2018-05-10T12:41:54.982Z,7.37
2018-05-10T12:44:23.540Z,8.63
2018-05-10T12:46:52.084Z,10.57
2018-05-10T12:49:21.427Z,10.40
2018-05-10T12:51:50.007Z,9.93
2018-05-10T12:54:18.551Z,10.67
2018-05-10T12:56:47.135Z,9.53
2018-05-10T12:59:15.667Z,8.50
2018-05-10T13:01:44.238Z,7.60
2018-05-10T13:04:12.806Z,11.40
2018-05-10T13:06:41.442Z,10.20
2018-05-10T13:09:10.163Z,9.20
2018-05-10T13:11:38.691Z,7.80
2018-05-10T13:14:07.276Z,8.43
2018-05-10T13:16:44.126Z,8.00
2018-05-10T13:19:12.677Z,8.83
2018-05-10T13:21:41.316Z,8.37
2018-05-10T13:24:10.515Z,7.37
2018-05-10T13:26:39.125Z,13.07
2018-05-10T13:29:07.689Z,11.33
2018-05-10T13:31:37.225Z,11.80
2018-05-10T13:34:06.771Z,12.93
2018-05-10T13:36:36.221Z,15.30
2018-05-10T13:42:09.639Z,14.40
2018-05-10T13:44:39.008Z,12.30
2018-05-10T13:47:07.594Z,12.13
2018-05-10T13:49:39.919Z,12.20
2018-05-10T13:52:08.553Z,12.33
2018-05-10T13:57:42.286Z,10.37
2018-05-10T14:00:10.897Z,13.07
2018-05-10T14:02:40.257Z,13.83
2018-05-10T14:05:08.873Z,14.20
2018-05-10T14:07:37.446Z,14.20
2018-05-10T14:10:06.814Z,15.60
2018-05-10T14:12:46.636Z,15.03
2018-05-10T14:15:27.295Z,17.77
2018-05-10T14:17:57.877Z,15.20
2018-05-10T14:20:26.502Z,17.70
2018-05-10T14:22:55.877Z,19.23
2018-05-10T14:25:24.592Z,21.80
2018-05-10T14:27:54.077Z,22.13
2018-05-10T14:30:22.756Z,21.80
2018-05-10T14:32:51.757Z,25.77
2018-05-10T14:35:20.399Z,27.83
2018-05-10T14:37:49.058Z,29.53
2018-05-10T14:40:17.669Z,29.50
2018-05-10T14:42:46.131Z,29.73
2018-05-10T14:45:14.756Z,28.13
2018-05-10T14:47:43.383Z,25.50
2018-05-10T14:50:12.065Z,28.10
2018-05-10T14:52:40.711Z,24.67
2018-05-10T14:55:09.382Z,24.90
2018-05-10T14:57:38.833Z,43.13
2018-05-10T15:00:07.472Z,21.90
2018-05-10T15:02:36.140Z,17.97
2018-05-10T15:05:04.830Z,16.23
2018-05-10T15:07:33.452Z,17.27
2018-05-10T15:10:02.140Z,13.47
2018-05-10T15:12:30.830Z,15.60
2018-05-10T15:14:59.533Z,14.03
2018-05-10T15:17:28.157Z,13.87
2018-05-10T15:19:56.801Z,13.03
2018-05-10T15:22:25.457Z,14.10
2018-05-10T15:24:55.234Z,13.33
2018-05-10T15:27:23.751Z,12.13
2018-05-10T15:29:59.812Z,11.87
2018-05-10T15:32:28.489Z,15.17
2018-05-10T15:34:57.112Z,13.27
2018-05-10T15:37:26.512Z,13.67
2018-05-10T15:39:55.930Z,9.00
2018-05-10T15:42:24.729Z,10.87
2018-05-10T15:44:53.377Z,7.67
2018-05-10T15:47:22.025Z,6.97
2018-05-10T15:49:50.711Z,8.07
2018-05-10T15:52:19.467Z,7.80
2018-05-10T15:54:48.887Z,6.00
2018-05-10T15:57:22.038Z,6.77
2018-05-10T15:59:51.479Z,9.17
2018-05-10T16:02:20.145Z,5.37
2018-05-10T16:04:50.454Z,7.00
2018-05-10T16:07:25.006Z,6.07
2018-05-10T16:09:56.442Z,5.07
2018-05-10T16:12:25.039Z,6.43
2018-05-10T16:14:54.468Z,8.07
2018-05-10T16:17:23.114Z,7.83
2018-05-10T16:19:51.830Z,7.73
2018-05-10T16:22:24.977Z,7.57
2018-05-10T16:24:53.575Z,9.07
2018-05-10T16:27:22.201Z,7.97
2018-05-10T16:30:02.634Z,11.23
2018-05-10T16:32:33.245Z,7.47
2018-05-10T16:35:20.528Z,10.73
2018-05-10T16:38:14.126Z,9.20
2018-05-10T16:40:42.943Z,15.40
2018-05-10T16:43:14.145Z,9.70
2018-05-10T16:45:42.808Z,14.40
2018-05-10T16:51:05.831Z,14.13
2018-05-10T16:53:40.114Z,14.23
2018-05-10T16:56:16.176Z,12.17
2018-05-10T16:59:00.134Z,12.27
2018-05-10T17:01:29.558Z,17.43
2018-05-10T17:03:58.188Z,12.53
2018-05-10T17:06:26.809Z,16.97
2018-05-10T17:08:56.198Z,14.57
2018-05-10T17:11:25.928Z,14.40
2018-05-10T17:13:55.534Z,15.53
2018-05-10T17:16:32.438Z,14.67
2018-05-10T17:19:01.534Z,17.10
2018-05-10T17:21:30.004Z,13.93
2018-05-10T17:23:58.758Z,14.00
2018-05-10T17:26:28.075Z,15.97
2018-05-10T17:29:00.682Z,16.80
2018-05-10T17:31:29.287Z,15.80
2018-05-10T17:34:02.156Z,14.50
2018-05-10T17:36:32.871Z,14.70
2018-05-10T17:39:01.595Z,14.50
2018-05-10T17:41:42.402Z,16.80
2018-05-10T17:44:14.130Z,15.87
2018-05-10T17:46:42.871Z,11.53
2018-05-10T17:49:11.549Z,15.07
2018-05-10T17:51:42.275Z,17.43
2018-05-10T17:54:10.978Z,18.50
2018-05-10T17:56:42.872Z,14.80
2018-05-10T17:59:11.961Z,19.17
2018-05-10T18:01:40.727Z,17.47
2018-05-10T18:04:29.109Z,18.13
2018-05-10T18:06:57.782Z,16.73
2018-05-10T18:09:26.446Z,20.10
2018-05-10T18:12:15.082Z,15.93
2018-05-10T18:14:49.548Z,17.07
2018-05-10T18:20:17.234Z,14.33
2018-05-10T18:22:45.921Z,17.67
2018-05-10T18:25:17.674Z,18.27
2018-05-10T18:27:46.351Z,17.87
2018-05-10T18:30:15.036Z,19.33
2018-05-10T18:32:44.907Z,18.20
2018-05-10T18:35:19.786Z,16.03
2018-05-10T18:37:51.583Z,14.83
2018-05-10T18:40:21.084Z,17.50
2018-05-10T18:42:49.746Z,13.67
2018-05-10T18:45:34.396Z,14.97
2018-05-10T18:48:03.285Z,18.80
2018-05-10T18:50:32.643Z,18.40
2018-05-10T18:53:01.838Z,13.57
2018-05-10T18:55:30.451Z,16.07
2018-05-10T18:57:59.097Z,16.50
2018-05-10T19:00:27.703Z,18.50
2018-05-10T19:02:57.097Z,18.10
2018-05-10T19:05:25.799Z,19.23
2018-05-10T19:07:55.197Z,19.10
2018-05-10T19:10:23.837Z,20.00
2018-05-10T19:12:54.546Z,19.87
2018-05-10T19:15:23.294Z,19.17
2018-05-10T19:17:52.828Z,16.43
2018-05-10T19:20:22.217Z,18.80
2018-05-10T19:22:50.860Z,17.73
2018-05-10T19:25:19.491Z,17.93
2018-05-10T19:27:47.616Z,18.23
2018-05-10T19:30:16.260Z,18.20
2018-05-10T19:32:45.636Z,16.27
2018-05-10T19:35:14.350Z,20.00
2018-05-10T19:37:43.001Z,18.90
2018-05-10T19:40:11.672Z,19.37
2018-05-10T19:42:40.311Z,18.97
2018-05-10T19:45:08.964Z,22.47
2018-05-10T19:48:01.124Z,24.43
2018-05-10T19:50:29.751Z,18.90
2018-05-10T19:52:58.454Z,18.63
2018-05-10T19:55:27.184Z,18.97
2018-05-10T19:57:57.869Z,23.23
2018-05-10T20:00:27.377Z,18.07
2018-05-10T20:02:58.036Z,18.87
2018-05-10T20:05:26.703Z,21.27
2018-05-10T20:07:58.975Z,20.70
2018-05-10T20:10:27.697Z,22.23
2018-05-10T20:12:56.345Z,22.63
2018-05-10T20:15:25.915Z,19.37
2018-05-10T20:17:54.561Z,20.87
2018-05-10T20:20:23.231Z,19.47
2018-05-10T20:22:51.848Z,23.90
2018-05-10T20:25:22.378Z,23.30
2018-05-10T20:27:51.059Z,21.60
2018-05-10T20:30:19.747Z,24.80
2018-05-10T20:32:48.444Z,20.83
2018-05-10T20:35:17.105Z,19.47
2018-05-10T20:37:45.720Z,22.40
2018-05-10T20:40:15.502Z,19.47
2018-05-10T20:42:45.816Z,25.00
2018-05-10T20:45:24.363Z,19.83
2018-05-10T20:47:53.028Z,27.40
2018-05-10T20:50:22.501Z,24.67
2018-05-10T20:52:51.357Z,23.13
2018-05-10T20:55:19.952Z,23.77
2018-05-10T20:57:48.612Z,29.20
2018-05-10T21:00:18.202Z,24.53
2018-05-10T21:02:46.833Z,24.13
2018-05-10T21:05:15.469Z,24.07
2018-05-10T21:07:44.087Z,22.93
2018-05-10T21:10:18.664Z,25.30
2018-05-10T21:12:47.384Z,29.53
2018-05-10T21:15:17.248Z,31.20
2018-05-10T21:17:45.908Z,29.47
2018-05-10T21:20:15.264Z,25.73
2018-05-10T21:22:43.889Z,23.67
2018-05-10T21:25:13.286Z,24.33
2018-05-10T21:27:41.896Z,26.53
2018-05-10T21:30:16.396Z,25.87
2018-05-10T21:32:45.525Z,27.07
2018-05-10T21:35:14.179Z,25.90
2018-05-10T21:37:43.566Z,25.60
2018-05-10T21:40:12.214Z,30.40
2018-05-10T21:42:40.547Z,30.13
2018-05-10T21:45:09.133Z,27.40
2018-05-10T21:47:37.760Z,24.90
2018-05-10T21:50:06.921Z,25.17
2018-05-10T21:52:35.540Z,25.83
2018-05-10T21:55:03.984Z,28.00
2018-05-10T21:57:33.592Z,24.50
2018-05-10T22:00:02.220Z,23.77
2018-05-10T22:02:30.868Z,23.10
2018-05-10T22:04:59.462Z,24.80
2018-05-10T22:07:28.123Z,25.33
2018-05-10T22:09:56.727Z,23.07
2018-05-10T22:12:25.371Z,22.10
2018-05-10T22:14:54.034Z,23.83
2018-05-10T22:17:22.634Z,22.83
2018-05-10T22:19:51.460Z,22.23
2018-05-10T22:22:20.101Z,24.17
2018-05-10T22:24:48.745Z,24.30
2018-05-10T22:27:17.400Z,25.10
2018-05-10T22:29:46.017Z,20.30
2018-05-10T22:32:14.660Z,22.00
2018-05-10T22:34:43.276Z,22.67
2018-05-10T22:37:11.706Z,23.33
2018-05-10T22:39:40.370Z,18.97
2018-05-10T22:42:08.979Z,19.90
2018-05-10T22:44:38.372Z,25.80
2018-05-10T22:47:07.021Z,21.73
2018-05-10T22:49:35.682Z,21.37
2018-05-10T22:52:04.293Z,22.27
2018-05-10T22:54:32.905Z,19.83
2018-05-10T22:57:01.593Z,22.13
2018-05-10T22:59:30.160Z,19.70
2018-05-10T23:01:58.794Z,21.93
2018-05-10T23:04:27.471Z,22.53
2018-05-10T23:06:56.170Z,22.50
2018-05-10T23:09:24.800Z,20.03
2018-05-10T23:11:53.112Z,20.17
2018-05-10T23:14:21.791Z,22.20
2018-05-10T23:16:50.654Z,19.57
2018-05-10T23:19:19.272Z,20.13
2018-05-10T23:21:48.139Z,23.17
2018-05-10T23:24:16.744Z,19.70
2018-05-10T23:26:45.365Z,23.73
2018-05-10T23:29:14.787Z,24.43
2018-05-10T23:31:44.152Z,28.53
2018-05-10T23:34:12.778Z,20.17
2018-05-10T23:36:41.413Z,19.53
2018-05-10T23:39:10.075Z,17.60
2018-05-10T23:41:38.700Z,20.63
2018-05-10T23:44:07.279Z,22.23
2018-05-10T23:46:35.990Z,22.30
2018-05-10T23:49:05.506Z,24.03
2018-05-10T23:51:34.939Z,20.60
2018-05-10T23:54:04.715Z,19.00
2018-05-10T23:56:33.324Z,20.07
2018-05-10T23:59:02.870Z,24.63
